Time;durP1;ratioP1;P1;durP2;ratioP2;P2;SDS_P1;SDS_P2;PMS_P1;PMS_P2;Temp;Humidity;BMP_temperature;BMP_pressure;BME280_temperature;BME280_humidity;BME280_pressure;Samples;Min_cycle;Max_cycle;Signal;HPM_P1;HPM_P2
2024/03/07 00:02:05;;;;;;;49.58;30.40;;;;;;;;;;4993654;28;20182;-83
2024/03/07 00:04:31;;;;;;;47.58;26.52;;;;;;;;;;4995204;28;20636;-83
2024/03/07 00:06:57;;;;;;;54.13;28.50;;;;;;;;;;4996009;28;20240;-83
2024/03/07 00:09:26;;;;;;;50.83;28.48;;;;;;;;;;4993830;28;20921;-83
2024/03/07 00:11:52;;;;;;;48.88;29.02;;;;;;;;;;4994460;28;20187;-83
2024/03/07 00:14:18;;;;;;;54.23;29.80;;;;;;;;;;4978279;28;20206;-83
2024/03/07 00:16:44;;;;;;;61.50;30.02;;;;;;;;;;4993702;28;20418;-83
2024/03/07 00:19:10;;;;;;;53.60;30.07;;;;;;;;;;4995808;28;20183;-82
2024/03/07 00:21:36;;;;;;;51.42;29.30;;;;;;;;;;4995376;28;20414;-81
2024/03/07 00:24:05;;;;;;;54.50;29.00;;;;;;;;;;4979007;28;20214;-82
2024/03/07 00:26:31;;;;;;;60.53;32.35;;;;;;;;;;4996538;28;20430;-82
2024/03/07 00:28:57;;;;;;;60.22;32.95;;;;;;;;;;4995855;28;20640;-82
2024/03/07 00:31:23;;;;;;;58.85;30.65;;;;;;;;;;4978777;28;20283;-82
2024/03/07 00:33:49;;;;;;;60.72;31.02;;;;;;;;;;4995797;28;20176;-82
2024/03/07 00:36:15;;;;;;;53.53;30.50;;;;;;;;;;4995856;28;20250;-82
2024/03/07 00:38:41;;;;;;;62.55;31.83;;;;;;;;;;4996105;28;20533;-82
2024/03/07 00:41:07;;;;;;;58.63;32.17;;;;;;;;;;4996499;28;20175;-82
2024/03/07 00:43:33;;;;;;;73.45;31.05;;;;;;;;;;4977956;28;20215;-82
2024/03/07 00:45:59;;;;;;;62.13;32.77;;;;;;;;;;4995808;28;20175;-82
2024/03/07 00:48:25;;;;;;;67.68;32.90;;;;;;;;;;4995980;28;20553;-82
2024/03/07 00:50:51;;;;;;;63.35;34.25;;;;;;;;;;4993916;28;20187;-82
2024/03/07 00:53:17;;;;;;;56.80;32.73;;;;;;;;;;4978071;28;20187;-82
2024/03/07 00:55:43;;;;;;;63.00;34.00;;;;;;;;;;4978074;28;20917;-82
2024/03/07 00:58:10;;;;;;;63.80;35.35;;;;;;;;;;4978115;28;20426;-82
2024/03/07 01:00:36;;;;;;;56.75;34.65;;;;;;;;;;4996028;28;20203;-82
2024/03/07 01:03:02;;;;;;;69.82;39.67;;;;;;;;;;4978504;28;20548;-82
2024/03/07 01:05:28;;;;;;;69.13;38.97;;;;;;;;;;4994780;28;20182;-83
2024/03/07 01:07:55;;;;;;;63.50;39.80;;;;;;;;;;4995366;28;20227;-82
2024/03/07 01:10:22;;;;;;;62.63;37.53;;;;;;;;;;4995945;28;20174;-82
2024/03/07 01:12:49;;;;;;;70.47;38.75;;;;;;;;;;4978323;28;20307;-82
2024/03/07 01:15:15;;;;;;;65.78;36.13;;;;;;;;;;4999021;28;20236;-82
2024/03/07 01:17:41;;;;;;;67.67;37.90;;;;;;;;;;4976910;28;20637;-83
2024/03/07 01:20:08;;;;;;;71.17;36.77;;;;;;;;;;4993886;28;20418;-82
2024/03/07 01:22:36;;;;;;;67.50;36.47;;;;;;;;;;4999318;28;20566;-84
2024/03/07 01:25:01;;;;;;;70.87;37.10;;;;;;;;;;4999645;28;20230;-82
2024/03/07 01:27:27;;;;;;;61.80;35.65;;;;;;;;;;4999710;28;20923;-82
2024/03/07 01:29:53;;;;;;;64.22;36.03;;;;;;;;;;4982590;28;20180;-82
2024/03/07 01:32:19;;;;;;;65.15;36.05;;;;;;;;;;4982201;28;20254;-82
2024/03/07 01:34:45;;;;;;;68.03;34.90;;;;;;;;;;4999688;28;20651;-82
2024/03/07 01:37:11;;;;;;;63.60;33.63;;;;;;;;;;4998060;28;20433;-82
2024/03/07 01:39:37;;;;;;;73.93;37.27;;;;;;;;;;4999067;28;20518;-82
2024/03/07 01:42:04;;;;;;;70.43;34.83;;;;;;;;;;4983077;28;20427;-82
2024/03/07 01:44:31;;;;;;;70.70;33.50;;;;;;;;;;4998613;28;20489;-82
2024/03/07 01:46:57;;;;;;;69.38;34.40;;;;;;;;;;4998969;28;20183;-82
2024/03/07 01:49:23;;;;;;;68.35;33.53;;;;;;;;;;4981674;28;20270;-82
2024/03/07 01:51:49;;;;;;;71.63;35.17;;;;;;;;;;4997634;28;20179;-82
2024/03/07 01:54:15;;;;;;;71.28;36.53;;;;;;;;;;4981112;28;20430;-82
2024/03/07 01:56:41;;;;;;;67.30;33.42;;;;;;;;;;4998899;28;20228;-82
2024/03/07 01:59:07;;;;;;;67.23;34.97;;;;;;;;;;5003510;28;20207;-82
2024/03/07 02:01:35;;;;;;;71.93;36.08;;;;;;;;;;5018502;28;20405;-82
2024/03/07 02:04:01;;;;;;;65.82;31.35;;;;;;;;;;5019103;28;20225;-82
2024/03/07 02:06:28;;;;;;;67.17;33.00;;;;;;;;;;5018402;28;20742;-82
2024/03/07 02:08:54;;;;;;;66.40;33.30;;;;;;;;;;5018506;28;20501;-82
2024/03/07 02:11:20;;;;;;;65.43;32.73;;;;;;;;;;5006794;28;20179;-82
2024/03/07 02:13:46;;;;;;;70.22;34.75;;;;;;;;;;5018299;28;20778;-82
2024/03/07 02:16:13;;;;;;;66.90;33.33;;;;;;;;;;5016446;28;20186;-82
2024/03/07 02:18:39;;;;;;;62.38;32.80;;;;;;;;;;4981510;28;20419;-83
2024/03/07 02:21:09;;;;;;;60.70;31.47;;;;;;;;;;4998796;28;20183;-83
2024/03/07 02:23:35;;;;;;;74.90;33.33;;;;;;;;;;4998428;28;20466;-83
2024/03/07 02:26:01;;;;;;;64.28;32.45;;;;;;;;;;4997929;28;20525;-83
2024/03/07 02:28:27;;;;;;;57.42;31.83;;;;;;;;;;4998310;28;20168;-82
2024/03/07 02:30:53;;;;;;;68.27;29.97;;;;;;;;;;4997150;28;20600;-83
2024/03/07 02:33:19;;;;;;;64.00;31.02;;;;;;;;;;4980985;28;20597;-83
2024/03/07 02:35:45;;;;;;;65.93;32.63;;;;;;;;;;4998931;28;20608;-82
2024/03/07 02:38:11;;;;;;;57.42;31.77;;;;;;;;;;4998401;28;20403;-82
2024/03/07 02:40:37;;;;;;;64.87;30.73;;;;;;;;;;4980798;28;20179;-82
2024/03/07 02:43:06;;;;;;;64.07;31.87;;;;;;;;;;4997787;28;20470;-83
2024/03/07 02:45:32;;;;;;;59.83;29.38;;;;;;;;;;4980373;28;20419;-83
2024/03/07 02:47:58;;;;;;;59.53;29.40;;;;;;;;;;4997749;28;20611;-83
2024/03/07 02:50:24;;;;;;;59.10;29.50;;;;;;;;;;4980615;28;20433;-82
2024/03/07 02:52:52;;;;;;;58.23;29.63;;;;;;;;;;4997851;28;20486;-84
2024/03/07 02:55:18;;;;;;;63.28;30.73;;;;;;;;;;4996746;28;20490;-84
2024/03/07 02:57:45;;;;;;;59.92;31.73;;;;;;;;;;4996853;28;20179;-85
2024/03/07 03:00:26;;;;;;;62.20;30.75;;;;;;;;;;4996961;28;20699;-84
2024/03/07 03:02:52;;;;;;;66.35;29.60;;;;;;;;;;4996288;28;20210;-84
2024/03/07 03:05:18;;;;;;;58.03;29.07;;;;;;;;;;4996687;28;20262;-83
2024/03/07 03:07:52;;;;;;;60.25;30.48;;;;;;;;;;4997832;28;20471;-84
2024/03/07 03:10:18;;;;;;;58.10;28.58;;;;;;;;;;4997594;28;20180;-83
2024/03/07 03:12:44;;;;;;;59.10;29.70;;;;;;;;;;4996022;28;20191;-83
2024/03/07 03:15:11;;;;;;;50.10;27.23;;;;;;;;;;4979652;28;20434;-83
2024/03/07 03:17:37;;;;;;;50.30;27.08;;;;;;;;;;4996485;28;20421;-83
2024/03/07 03:20:14;;;;;;;48.35;26.33;;;;;;;;;;4996244;28;20188;-83
2024/03/07 03:22:43;;;;;;;52.65;27.88;;;;;;;;;;4997570;28;20254;-84
2024/03/07 03:25:10;;;;;;;52.95;28.45;;;;;;;;;;4979745;28;20175;-84
2024/03/07 03:27:37;;;;;;;54.05;28.20;;;;;;;;;;4979307;28;20175;-84
2024/03/07 03:30:04;;;;;;;63.85;31.10;;;;;;;;;;4980137;28;20187;-84
2024/03/07 03:32:30;;;;;;;52.35;28.77;;;;;;;;;;4996790;28;20179;-84
2024/03/07 03:34:56;;;;;;;59.22;28.23;;;;;;;;;;4997356;28;20195;-84
2024/03/07 03:37:21;;;;;;;54.70;28.92;;;;;;;;;;4996952;28;20179;-83
2024/03/07 03:39:49;;;;;;;53.53;28.40;;;;;;;;;;4996973;28;20175;-84
2024/03/07 03:42:15;;;;;;;51.67;27.20;;;;;;;;;;4995606;28;20925;-83
2024/03/07 03:44:41;;;;;;;49.90;27.35;;;;;;;;;;4997281;28;20258;-83
2024/03/07 03:47:07;;;;;;;58.20;28.17;;;;;;;;;;4996336;28;20568;-83
2024/03/07 03:49:33;;;;;;;52.58;27.63;;;;;;;;;;4996868;28;20428;-84
2024/03/07 03:51:59;;;;;;;49.70;27.77;;;;;;;;;;4997309;28;20299;-83
2024/03/07 03:54:25;;;;;;;53.70;26.70;;;;;;;;;;4979385;28;20418;-83
2024/03/07 03:56:51;;;;;;;55.40;29.20;;;;;;;;;;4978989;28;20194;-83
2024/03/07 03:59:18;;;;;;;53.00;27.70;;;;;;;;;;4995318;28;20176;-81
2024/03/07 04:01:45;;;;;;;49.55;25.45;;;;;;;;;;4979756;28;20498;-84
2024/03/07 04:04:11;;;;;;;48.10;26.30;;;;;;;;;;4995820;28;20223;-83
2024/03/07 04:06:37;;;;;;;51.30;27.20;;;;;;;;;;4996556;28;20238;-84
2024/03/07 04:09:04;;;;;;;44.00;27.37;;;;;;;;;;4995772;28;20443;-84
2024/03/07 04:11:30;;;;;;;46.15;25.80;;;;;;;;;;4996521;28;20903;-83
2024/03/07 04:13:56;;;;;;;54.78;26.75;;;;;;;;;;4979205;28;20242;-84
2024/03/07 04:16:22;;;;;;;45.25;26.02;;;;;;;;;;4979135;28;20180;-83
2024/03/07 04:18:48;;;;;;;52.72;28.38;;;;;;;;;;4979559;28;20179;-83
2024/03/07 04:21:14;;;;;;;52.20;26.85;;;;;;;;;;4996529;28;20183;-83
2024/03/07 04:23:41;;;;;;;52.70;27.23;;;;;;;;;;4978788;28;20695;-83
2024/03/07 04:26:08;;;;;;;55.95;27.08;;;;;;;;;;4978941;28;20822;-84
2024/03/07 04:28:34;;;;;;;50.97;26.73;;;;;;;;;;4979226;28;20176;-83
2024/03/07 04:31:00;;;;;;;43.90;26.00;;;;;;;;;;4996427;28;20174;-84
2024/03/07 04:33:26;;;;;;;46.10;25.00;;;;;;;;;;4996306;28;20186;-83
2024/03/07 04:35:52;;;;;;;48.13;25.20;;;;;;;;;;4979209;28;20844;-83
2024/03/07 04:38:18;;;;;;;49.50;26.83;;;;;;;;;;4996416;28;20262;-84
2024/03/07 04:40:44;;;;;;;41.53;24.83;;;;;;;;;;4979127;28;20416;-83
2024/03/07 04:43:11;;;;;;;42.30;24.48;;;;;;;;;;4979335;28;20894;-83
2024/03/07 04:45:37;;;;;;;41.60;23.42;;;;;;;;;;4979115;28;20241;-83
2024/03/07 04:48:03;;;;;;;41.15;24.30;;;;;;;;;;4980882;28;20273;-83
2024/03/07 04:50:29;;;;;;;52.67;24.52;;;;;;;;;;4995731;28;20223;-83
2024/03/07 04:52:55;;;;;;;46.83;25.80;;;;;;;;;;4995916;28;20172;-83
2024/03/07 04:55:21;;;;;;;42.65;23.85;;;;;;;;;;4978642;28;20239;-81
2024/03/07 04:57:47;;;;;;;42.03;23.60;;;;;;;;;;4995336;28;20180;-83
2024/03/07 05:00:14;;;;;;;41.42;24.42;;;;;;;;;;4996029;28;20414;-83
2024/03/07 05:02:43;;;;;;;42.17;24.50;;;;;;;;;;4995623;28;20205;-83
2024/03/07 05:05:09;;;;;;;41.38;24.65;;;;;;;;;;4978400;28;20376;-83
2024/03/07 05:07:38;;;;;;;42.73;23.70;;;;;;;;;;4978207;28;20343;-83
2024/03/07 05:10:04;;;;;;;47.00;24.48;;;;;;;;;;4978775;28;20419;-83
2024/03/07 05:12:30;;;;;;;52.70;27.15;;;;;;;;;;4996193;28;20273;-83
2024/03/07 05:14:57;;;;;;;46.67;25.88;;;;;;;;;;4996282;28;20563;-84
2024/03/07 05:17:22;;;;;;;43.53;25.02;;;;;;;;;;4994227;28;20208;-82
2024/03/07 05:19:49;;;;;;;45.97;24.40;;;;;;;;;;4994856;28;20184;-83
2024/03/07 05:22:16;;;;;;;44.00;24.88;;;;;;;;;;4996099;28;20459;-84
2024/03/07 05:24:45;;;;;;;45.17;24.95;;;;;;;;;;4995951;28;20171;-83
2024/03/07 05:27:11;;;;;;;43.63;24.55;;;;;;;;;;4996385;28;20534;-83
2024/03/07 05:29:38;;;;;;;43.80;26.13;;;;;;;;;;4990952;28;20206;-83
2024/03/07 05:32:26;;;;;;;52.30;27.13;;;;;;;;;;4958977;28;20295;-83
2024/03/07 05:34:53;;;;;;;55.50;27.80;;;;;;;;;;4975815;28;20187;-83
2024/03/07 05:37:21;;;;;;;48.60;26.65;;;;;;;;;;4976173;28;20188;-83
2024/03/07 05:39:47;;;;;;;44.72;25.98;;;;;;;;;;4976439;28;20211;-83
2024/03/07 05:42:14;;;;;;;55.90;27.48;;;;;;;;;;4976275;28;20234;-83
2024/03/07 05:44:41;;;;;;;44.40;25.45;;;;;;;;;;4959295;28;20211;-83
2024/03/07 05:47:07;;;;;;;53.15;27.33;;;;;;;;;;4959357;28;20215;-83
2024/03/07 05:49:33;;;;;;;55.00;27.92;;;;;;;;;;4975569;28;20194;-83
2024/03/07 05:52:00;;;;;;;52.53;27.75;;;;;;;;;;4978677;28;20557;-83
2024/03/07 05:54:26;;;;;;;55.42;26.00;;;;;;;;;;4995949;28;20265;-82
2024/03/07 05:56:52;;;;;;;51.33;28.30;;;;;;;;;;4995032;28;20202;-82
2024/03/07 05:59:17;;;;;;;52.90;26.33;;;;;;;;;;4995522;28;20429;-83
2024/03/07 06:01:43;;;;;;;55.00;28.30;;;;;;;;;;4996721;28;20417;-82
2024/03/07 06:04:10;;;;;;;61.73;30.30;;;;;;;;;;4999266;28;20496;-83
2024/03/07 06:06:37;;;;;;;60.00;31.40;;;;;;;;;;4997846;28;20811;-82
2024/03/07 06:09:08;;;;;;;55.47;28.13;;;;;;;;;;4999517;28;20203;-83
2024/03/07 06:11:38;;;;;;;55.67;29.70;;;;;;;;;;5005986;28;20194;-82
2024/03/07 06:14:04;;;;;;;58.92;31.08;;;;;;;;;;5018236;28;20191;-82
2024/03/07 06:16:32;;;;;;;52.33;28.25;;;;;;;;;;5018642;28;20176;-82
2024/03/07 06:18:59;;;;;;;56.70;29.20;;;;;;;;;;5017703;28;20528;-82
2024/03/07 06:21:25;;;;;;;59.03;31.13;;;;;;;;;;5001575;28;20202;-83
2024/03/07 06:23:59;;;;;;;85.28;31.92;;;;;;;;;;5018942;28;20206;-83
2024/03/07 06:26:36;;;;;;;55.17;30.02;;;;;;;;;;5017828;28;20175;-82
2024/03/07 06:29:04;;;;;;;57.05;29.13;;;;;;;;;;5019046;28;20197;-82
2024/03/07 06:31:30;;;;;;;67.57;29.75;;;;;;;;;;5001255;28;20179;-82
2024/03/07 06:33:56;;;;;;;67.50;32.22;;;;;;;;;;5001531;28;20187;-82
2024/03/07 06:36:23;;;;;;;58.55;29.60;;;;;;;;;;5018409;28;20180;-82
2024/03/07 06:38:49;;;;;;;57.08;29.60;;;;;;;;;;5017708;28;20181;-82
2024/03/07 06:41:15;;;;;;;55.70;28.63;;;;;;;;;;5017005;28;20186;-82
2024/03/07 06:43:41;;;;;;;51.28;28.23;;;;;;;;;;5017837;28;20677;-82
2024/03/07 06:46:09;;;;;;;58.73;29.40;;;;;;;;;;5018436;28;20283;-82
2024/03/07 06:48:35;;;;;;;55.75;29.75;;;;;;;;;;4994172;28;21023;-82
2024/03/07 06:51:01;;;;;;;54.65;29.35;;;;;;;;;;4981762;28;20543;-82
2024/03/07 06:53:28;;;;;;;54.40;29.67;;;;;;;;;;4998698;28;20179;-82
2024/03/07 06:55:55;;;;;;;57.35;28.05;;;;;;;;;;4981820;28;20418;-82
2024/03/07 06:58:21;;;;;;;59.90;29.48;;;;;;;;;;4998401;28;20207;-82
2024/03/07 07:00:47;;;;;;;54.47;28.77;;;;;;;;;;4981005;28;20187;-82
2024/03/07 07:03:14;;;;;;;51.35;27.92;;;;;;;;;;4998462;28;20210;-82
2024/03/07 07:05:44;;;;;;;52.85;29.25;;;;;;;;;;4980288;28;20242;-82
2024/03/07 07:08:10;;;;;;;57.42;29.20;;;;;;;;;;4962228;28;20563;-82
2024/03/07 07:10:37;;;;;;;53.00;28.90;;;;;;;;;;4978586;28;20603;-82
2024/03/07 07:13:04;;;;;;;56.05;28.40;;;;;;;;;;4978691;28;20184;-82
2024/03/07 07:15:30;;;;;;;63.00;29.40;;;;;;;;;;4978853;28;20617;-80
2024/03/07 07:17:56;;;;;;;55.45;29.13;;;;;;;;;;4978991;28;20188;-82
2024/03/07 07:20:23;;;;;;;56.15;30.27;;;;;;;;;;4962092;28;20532;-82
2024/03/07 07:22:50;;;;;;;47.40;28.52;;;;;;;;;;4978521;28;20762;-83
2024/03/07 07:25:16;;;;;;;60.63;31.00;;;;;;;;;;4978705;28;20240;-83
2024/03/07 07:27:46;;;;;;;51.58;27.05;;;;;;;;;;4976718;28;20183;-88
2024/03/07 07:30:13;;;;;;;57.60;29.45;;;;;;;;;;4975703;28;20176;-89
2024/03/07 07:32:40;;;;;;;60.03;30.65;;;;;;;;;;4977425;28;20183;-82
2024/03/07 07:35:11;;;;;;;61.15;30.92;;;;;;;;;;4976805;28;20248;-82
2024/03/07 07:37:37;;;;;;;57.70;31.13;;;;;;;;;;4978612;28;20169;-82
2024/03/07 07:40:03;;;;;;;54.30;32.08;;;;;;;;;;4978285;28;20609;-82
2024/03/07 07:42:29;;;;;;;61.05;32.60;;;;;;;;;;4978265;28;20278;-81
2024/03/07 07:44:55;;;;;;;47.30;28.02;;;;;;;;;;4977699;28;20180;-82
2024/03/07 07:47:21;;;;;;;56.33;30.97;;;;;;;;;;4978649;28;20361;-81
2024/03/07 07:49:48;;;;;;;55.03;28.70;;;;;;;;;;4978239;28;20415;-82
2024/03/07 07:52:16;;;;;;;54.60;30.27;;;;;;;;;;4978661;28;20411;-81
2024/03/07 07:54:43;;;;;;;51.97;29.48;;;;;;;;;;4978184;28;20178;-82
2024/03/07 07:57:09;;;;;;;59.03;34.35;;;;;;;;;;4978189;28;20182;-83
2024/03/07 07:59:36;;;;;;;46.30;26.87;;;;;;;;;;4977818;28;20188;-81
2024/03/07 08:02:06;;;;;;;57.25;30.90;;;;;;;;;;4978589;28;20408;-82
2024/03/07 08:04:32;;;;;;;53.90;28.83;;;;;;;;;;4978520;28;20573;-82
2024/03/07 08:06:58;;;;;;;48.63;29.05;;;;;;;;;;4988498;28;20245;-81
2024/03/07 08:09:24;;;;;;;48.17;25.80;;;;;;;;;;4989024;28;20184;-82
2024/03/07 08:11:52;;;;;;;50.42;29.33;;;;;;;;;;4996169;28;20414;-82
2024/03/07 08:14:18;;;;;;;45.95;27.35;;;;;;;;;;4996404;28;20187;-81
2024/03/07 08:16:44;;;;;;;42.03;25.50;;;;;;;;;;4997399;28;20175;-82
2024/03/07 08:19:11;;;;;;;39.53;23.67;;;;;;;;;;4980019;28;20174;-82
2024/03/07 08:21:37;;;;;;;38.60;25.40;;;;;;;;;;4979818;28;20270;-81
2024/03/07 08:24:10;;;;;;;39.40;26.55;;;;;;;;;;4996868;28;20200;-81
2024/03/07 08:26:36;;;;;;;37.53;23.75;;;;;;;;;;4979547;28;20189;-80
2024/03/07 08:29:02;;;;;;;35.22;22.40;;;;;;;;;;4997472;28;20541;-82
2024/03/07 08:31:28;;;;;;;37.67;22.70;;;;;;;;;;4997138;28;20174;-82
2024/03/07 08:33:54;;;;;;;39.67;24.48;;;;;;;;;;4995878;28;20283;-81
2024/03/07 08:36:22;;;;;;;40.87;22.63;;;;;;;;;;4980067;28;20730;-82
2024/03/07 08:38:48;;;;;;;39.55;21.95;;;;;;;;;;4997010;28;20402;-82
2024/03/07 08:41:14;;;;;;;33.57;22.43;;;;;;;;;;4996949;28;20266;-82
2024/03/07 08:43:41;;;;;;;36.33;23.30;;;;;;;;;;4995936;28;20467;-82
2024/03/07 08:46:08;;;;;;;34.00;21.70;;;;;;;;;;4980293;28;20174;-82
2024/03/07 08:48:35;;;;;;;29.10;19.95;;;;;;;;;;4997114;28;20210;-83
2024/03/07 08:51:01;;;;;;;32.28;22.10;;;;;;;;;;4997018;28;20504;-82
2024/03/07 08:53:27;;;;;;;31.60;20.83;;;;;;;;;;4997106;28;20175;-82
2024/03/07 08:55:53;;;;;;;30.07;19.60;;;;;;;;;;4979543;28;20961;-81
2024/03/07 08:58:19;;;;;;;27.85;17.90;;;;;;;;;;4996941;28;20415;-82
2024/03/07 09:00:45;;;;;;;33.23;20.90;;;;;;;;;;4997086;28;20531;-82
2024/03/07 09:03:12;;;;;;;35.20;19.35;;;;;;;;;;4996715;28;20825;-81
2024/03/07 09:05:38;;;;;;;27.35;19.38;;;;;;;;;;4995505;28;20182;-81
2024/03/07 09:08:05;;;;;;;26.23;19.25;;;;;;;;;;4994683;28;20231;-82
2024/03/07 09:10:31;;;;;;;25.90;17.92;;;;;;;;;;4976757;28;20590;-82
2024/03/07 09:12:57;;;;;;;27.67;19.38;;;;;;;;;;4976359;28;20240;-81
2024/03/07 09:15:23;;;;;;;26.48;18.30;;;;;;;;;;4977197;28;20183;-81
2024/03/07 09:17:49;;;;;;;24.93;16.83;;;;;;;;;;4977326;28;20184;-81
2024/03/07 09:20:15;;;;;;;28.40;16.80;;;;;;;;;;4977753;28;20407;-82
2024/03/07 09:22:42;;;;;;;26.30;16.10;;;;;;;;;;4977192;28;20239;-81
2024/03/07 09:25:08;;;;;;;22.98;16.08;;;;;;;;;;4977425;28;20200;-82
2024/03/07 09:27:34;;;;;;;23.40;14.38;;;;;;;;;;4977037;28;20181;-82
2024/03/07 09:30:00;;;;;;;29.10;16.20;;;;;;;;;;4976522;28;20668;-82
2024/03/07 09:32:27;;;;;;;22.37;14.33;;;;;;;;;;4976899;28;20408;-82
2024/03/07 09:34:54;;;;;;;21.23;13.35;;;;;;;;;;4975960;28;20751;-82
2024/03/07 09:37:23;;;;;;;22.10;13.75;;;;;;;;;;4980782;28;20548;-82
2024/03/07 09:39:49;;;;;;;19.48;13.95;;;;;;;;;;4963350;28;20180;-82
2024/03/07 09:42:18;;;;;;;23.57;15.20;;;;;;;;;;4980315;28;20675;-81
2024/03/07 09:44:44;;;;;;;21.73;13.47;;;;;;;;;;4980527;28;20621;-82
2024/03/07 09:47:11;;;;;;;20.35;13.93;;;;;;;;;;4980260;28;20447;-82
2024/03/07 09:49:37;;;;;;;18.67;13.10;;;;;;;;;;4980400;28;20235;-82
2024/03/07 09:52:14;;;;;;;20.98;13.32;;;;;;;;;;4980423;28;20675;-82
2024/03/07 09:54:44;;;;;;;19.80;13.73;;;;;;;;;;4980254;28;20181;-83
2024/03/07 09:57:11;;;;;;;22.42;15.98;;;;;;;;;;4980086;28;20552;-83
2024/03/07 09:59:39;;;;;;;22.08;16.38;;;;;;;;;;4978973;28;20195;-82
2024/03/07 10:02:06;;;;;;;18.08;12.38;;;;;;;;;;4979575;28;20184;-82
2024/03/07 10:04:48;;;;;;;22.08;13.20;;;;;;;;;;4980291;28;20267;-82
2024/03/07 10:07:14;;;;;;;19.65;14.27;;;;;;;;;;4990826;28;20688;-82
2024/03/07 10:09:41;;;;;;;19.15;12.50;;;;;;;;;;4999380;28;20233;-80
2024/03/07 10:12:12;;;;;;;19.70;13.88;;;;;;;;;;4999597;28;20171;-82
2024/03/07 10:14:38;;;;;;;22.85;13.50;;;;;;;;;;4999528;28;20190;-83
2024/03/07 10:17:04;;;;;;;19.85;14.18;;;;;;;;;;4999234;28;20535;-82
2024/03/07 10:19:30;;;;;;;17.95;12.73;;;;;;;;;;4999334;28;20195;-83
2024/03/07 10:22:01;;;;;;;21.45;14.70;;;;;;;;;;4999146;28;20525;-83
2024/03/07 10:24:27;;;;;;;25.77;14.50;;;;;;;;;;4981907;28;20566;-83
2024/03/07 10:26:58;;;;;;;19.55;13.80;;;;;;;;;;4999089;28;20184;-82
2024/03/07 10:29:24;;;;;;;19.10;13.35;;;;;;;;;;4999466;28;20523;-83
2024/03/07 10:31:50;;;;;;;17.30;12.35;;;;;;;;;;4980824;28;20594;-82
2024/03/07 10:34:16;;;;;;;20.42;14.65;;;;;;;;;;4998961;28;20176;-82
2024/03/07 10:36:43;;;;;;;21.17;14.85;;;;;;;;;;4998484;28;20259;-82
2024/03/07 10:39:14;;;;;;;23.42;14.60;;;;;;;;;;4998963;28;20242;-82
2024/03/07 10:41:43;;;;;;;18.80;13.90;;;;;;;;;;4982388;28;20211;-83
2024/03/07 10:44:11;;;;;;;20.85;13.27;;;;;;;;;;4998842;28;20686;-82
2024/03/07 10:46:37;;;;;;;19.35;13.50;;;;;;;;;;4997794;28;20175;-82
2024/03/07 10:49:07;;;;;;;17.42;12.43;;;;;;;;;;4998438;28;20178;-83
2024/03/07 10:51:36;;;;;;;17.33;12.27;;;;;;;;;;4998198;28;20172;-84
2024/03/07 10:54:26;;;;;;;18.77;13.40;;;;;;;;;;4996623;28;20423;-84
2024/03/07 10:56:52;;;;;;;16.80;12.10;;;;;;;;;;4989029;28;20407;-82
2024/03/07 10:59:19;;;;;;;19.43;13.83;;;;;;;;;;4998193;28;20409;-84
2024/03/07 11:01:59;;;;;;;18.63;13.03;;;;;;;;;;4997432;28;20526;-83
2024/03/07 11:04:25;;;;;;;17.00;13.40;;;;;;;;;;4997886;28;20481;-84
2024/03/07 11:06:52;;;;;;;17.83;13.30;;;;;;;;;;4997584;28;20466;-83
2024/03/07 11:09:42;;;;;;;17.30;13.00;;;;;;;;;;4996821;28;20510;-83
2024/03/07 11:12:06;;;;;;;16.80;11.93;;;;;;;;;;4996739;28;20414;-83
2024/03/07 11:14:32;;;;;;;16.80;13.43;;;;;;;;;;4997804;28;20419;-84
2024/03/07 11:16:59;;;;;;;19.27;14.37;;;;;;;;;;4996804;28;20775;-84
2024/03/07 11:19:31;;;;;;;18.03;14.00;;;;;;;;;;4997223;28;20414;-84
2024/03/07 11:21:57;;;;;;;19.50;13.80;;;;;;;;;;4997369;28;20390;-83
2024/03/07 11:24:33;;;;;;;24.73;15.53;;;;;;;;;;4997187;28;20470;-83
2024/03/07 11:27:02;;;;;;;21.20;13.97;;;;;;;;;;4997168;28;20453;-83
2024/03/07 11:29:43;;;;;;;21.30;12.67;;;;;;;;;;4997180;28;20411;-83
2024/03/07 11:32:11;;;;;;;18.40;14.13;;;;;;;;;;4996684;28;20417;-83
2024/03/07 11:34:41;;;;;;;19.87;13.37;;;;;;;;;;4997055;28;20455;-83
2024/03/07 11:37:09;;;;;;;21.30;14.20;;;;;;;;;;4995991;28;20929;-83
2024/03/07 11:39:42;;;;;;;17.17;13.17;;;;;;;;;;4995848;28;20784;-82
2024/03/07 11:42:28;;;;;;;19.43;14.17;;;;;;;;;;4996809;28;20776;-83
2024/03/07 11:44:56;;;;;;;18.20;14.00;;;;;;;;;;4979952;28;20434;-83
2024/03/07 11:47:24;;;;;;;18.30;13.63;;;;;;;;;;4996862;28;20435;-82
2024/03/07 11:49:52;;;;;;;16.20;12.50;;;;;;;;;;4996471;28;20420;-82
2024/03/07 11:52:17;;;;;;;19.03;13.53;;;;;;;;;;4997008;28;20410;-83
2024/03/07 11:54:46;;;;;;;20.57;13.80;;;;;;;;;;4996523;28;20832;-83
2024/03/07 11:57:13;;;;;;;20.37;13.70;;;;;;;;;;4997712;28;20443;-84
2024/03/07 11:59:45;;;;;;;17.67;12.60;;;;;;;;;;4996898;28;20514;-83
2024/03/07 12:02:21;;;;;;;16.60;12.50;;;;;;;;;;4997752;28;20405;-83
2024/03/07 12:04:47;;;;;;;17.50;12.07;;;;;;;;;;5007658;28;20873;-80
2024/03/07 12:07:17;;;;;;;18.13;12.53;;;;;;;;;;4995963;28;20478;-83
2024/03/07 12:09:45;;;;;;;14.20;10.87;;;;;;;;;;4996667;28;20403;-83
2024/03/07 12:12:12;;;;;;;17.17;12.27;;;;;;;;;;4995832;28;20410;-83
2024/03/07 12:14:38;;;;;;;18.40;12.17;;;;;;;;;;4996140;28;20785;-83
2024/03/07 12:17:05;;;;;;;16.90;12.20;;;;;;;;;;4996200;28;20399;-83
2024/03/07 12:19:35;;;;;;;17.30;12.23;;;;;;;;;;4979702;28;20454;-83
2024/03/07 12:22:03;;;;;;;19.13;13.80;;;;;;;;;;4996156;28;20405;-83
2024/03/07 12:24:30;;;;;;;17.83;12.30;;;;;;;;;;4995920;28;20468;-83
2024/03/07 12:27:05;;;;;;;18.17;13.63;;;;;;;;;;4996175;28;20441;-83
2024/03/07 12:29:32;;;;;;;16.30;11.93;;;;;;;;;;4995363;28;20505;-83
2024/03/07 12:31:59;;;;;;;16.00;12.27;;;;;;;;;;4996273;28;20434;-83
2024/03/07 12:34:27;;;;;;;16.67;11.83;;;;;;;;;;4996064;28;20453;-82
2024/03/07 12:36:56;;;;;;;19.70;13.17;;;;;;;;;;4996261;28;20403;-83
2024/03/07 12:39:26;;;;;;;16.20;11.60;;;;;;;;;;4995980;28;20462;-84
2024/03/07 12:41:58;;;;;;;16.37;12.00;;;;;;;;;;4995522;28;20418;-82
2024/03/07 12:44:24;;;;;;;17.20;11.80;;;;;;;;;;4996063;28;20466;-84
2024/03/07 12:46:55;;;;;;;17.33;13.03;;;;;;;;;;4995306;28;20407;-82
2024/03/07 12:49:27;;;;;;;17.03;13.10;;;;;;;;;;4994876;28;20784;-83
2024/03/07 12:51:56;;;;;;;15.90;11.40;;;;;;;;;;4995497;28;20411;-82
2024/03/07 12:54:22;;;;;;;13.10;10.67;;;;;;;;;;4996062;28;20430;-83
2024/03/07 12:56:51;;;;;;;14.20;10.77;;;;;;;;;;4996265;28;20410;-82
2024/03/07 12:59:20;;;;;;;16.30;11.70;;;;;;;;;;4996108;28;20414;-81
2024/03/07 13:01:47;;;;;;;14.20;11.20;;;;;;;;;;4995832;28;20489;-83
2024/03/07 13:04:14;;;;;;;11.83;9.57;;;;;;;;;;4994851;28;21061;-80
2024/03/07 13:06:43;;;;;;;14.67;11.00;;;;;;;;;;4995471;28;20481;-82
2024/03/07 13:09:10;;;;;;;18.03;12.50;;;;;;;;;;4995308;28;20477;-81
2024/03/07 13:11:40;;;;;;;15.40;10.77;;;;;;;;;;5001635;28;20410;-83
2024/03/07 13:14:07;;;;;;;10.10;8.80;;;;;;;;;;5001622;28;20922;-83
2024/03/07 13:16:33;;;;;;;12.47;9.20;;;;;;;;;;5002843;28;20778;-83
2024/03/07 13:18:59;;;;;;;16.70;9.43;;;;;;;;;;5002641;28;20863;-82
2024/03/07 13:21:27;;;;;;;13.27;10.03;;;;;;;;;;5002197;28;20404;-82
2024/03/07 13:23:53;;;;;;;12.30;9.90;;;;;;;;;;4986325;28;20482;-82
2024/03/07 13:26:24;;;;;;;14.67;10.40;;;;;;;;;;5002707;28;20517;-82
2024/03/07 13:28:54;;;;;;;9.43;8.03;;;;;;;;;;5002536;28;20425;-83
2024/03/07 13:31:20;;;;;;;12.60;9.83;;;;;;;;;;5003859;28;20493;-83
2024/03/07 13:33:46;;;;;;;12.23;9.33;;;;;;;;;;5003607;28;20860;-83
2024/03/07 13:36:20;;;;;;;14.47;10.90;;;;;;;;;;5001400;28;20465;-83
2024/03/07 13:38:46;;;;;;;16.50;12.63;;;;;;;;;;5003196;28;20442;-83
2024/03/07 13:41:12;;;;;;;19.90;13.90;;;;;;;;;;5001685;28;20425;-83
2024/03/07 13:43:38;;;;;;;14.83;11.23;;;;;;;;;;5001672;28;20480;-83
2024/03/07 13:46:04;;;;;;;19.13;11.97;;;;;;;;;;5000993;28;20411;-83
2024/03/07 13:48:32;;;;;;;11.63;8.93;;;;;;;;;;5001499;28;20411;-83
2024/03/07 13:50:59;;;;;;;11.93;9.10;;;;;;;;;;4983663;28;20429;-83
2024/03/07 13:53:32;;;;;;;12.17;9.53;;;;;;;;;;5001481;28;20419;-83
2024/03/07 13:56:13;;;;;;;12.60;8.73;;;;;;;;;;5001038;28;20886;-83
2024/03/07 13:58:52;;;;;;;14.50;8.20;;;;;;;;;;5013666;28;20420;-83
2024/03/07 14:01:24;;;;;;;10.30;7.63;;;;;;;;;;5020868;28;20393;-83
2024/03/07 14:04:11;;;;;;;11.20;8.83;;;;;;;;;;5021024;28;20479;-83
2024/03/07 14:06:46;;;;;;;10.43;8.80;;;;;;;;;;5020850;28;20461;-83
2024/03/07 14:09:30;;;;;;;19.03;10.73;;;;;;;;;;5021209;28;20402;-83
2024/03/07 14:12:15;;;;;;;11.80;9.13;;;;;;;;;;5003805;28;20501;-83
2024/03/07 14:15:00;;;;;;;10.63;7.83;;;;;;;;;;5001587;28;20410;-83
2024/03/07 14:17:44;;;;;;;12.93;8.20;;;;;;;;;;4984839;28;20918;-82
2024/03/07 14:20:31;;;;;;;12.40;7.77;;;;;;;;;;5001449;28;20429;-82
2024/03/07 14:23:06;;;;;;;11.63;9.23;;;;;;;;;;4997022;28;20466;-81